sensor_id;sensor_type;location;lat;lon;timestamp;temperature;humidity
20650;DHT22;10484;48.736;9.332;2022-12-10T00:01:51;2.10;1.00
20650;DHT22;10484;48.736;9.332;2022-12-10T00:04:18;2.10;1.00
20650;DHT22;10484;48.736;9.332;2022-12-10T00:06:44;2.10;1.00
20650;DHT22;10484;48.736;9.332;2022-12-10T00:09:17;2.10;1.00
20650;DHT22;10484;48.736;9.332;2022-12-10T00:11:43;2.10;1.00
20650;DHT22;10484;48.736;9.332;2022-12-10T00:14:11;2.10;1.00
20650;DHT22;10484;48.736;9.332;2022-12-10T00:16:37;2.10;1.00
20650;DHT22;10484;48.736;9.332;2022-12-10T00:19:03;2.10;1.00
20650;DHT22;10484;48.736;9.332;2022-12-10T00:21:32;2.10;1.00
20650;DHT22;10484;48.736;9.332;2022-12-10T00:23:59;2.20;1.00
20650;DHT22;10484;48.736;9.332;2022-12-10T00:26:31;2.10;1.00
20650;DHT22;10484;48.736;9.332;2022-12-10T00:28:59;2.10;1.00
20650;DHT22;10484;48.736;9.332;2022-12-10T00:31:27;2.10;1.00
20650;DHT22;10484;48.736;9.332;2022-12-10T00:33:54;2.20;1.00
20650;DHT22;10484;48.736;9.332;2022-12-10T00:36:23;2.20;1.00
20650;DHT22;10484;48.736;9.332;2022-12-10T00:38:50;2.20;1.00
20650;DHT22;10484;48.736;9.332;2022-12-10T00:41:16;2.10;1.00
20650;DHT22;10484;48.736;9.332;2022-12-10T00:43:42;2.10;1.00
20650;DHT22;10484;48.736;9.332;2022-12-10T00:46:09;2.10;1.00
20650;DHT22;10484;48.736;9.332;2022-12-10T00:48:35;2.10;1.00
20650;DHT22;10484;48.736;9.332;2022-12-10T00:51:10;2.10;1.00
20650;DHT22;10484;48.736;9.332;2022-12-10T00:53:38;2.10;1.00
20650;DHT22;10484;48.736;9.332;2022-12-10T00:56:04;2.10;1.00
20650;DHT22;10484;48.736;9.332;2022-12-10T00:58:32;2.10;1.00
20650;DHT22;10484;48.736;9.332;2022-12-10T01:03:55;2.10;1.00
20650;DHT22;10484;48.736;9.332;2022-12-10T01:06:33;2.10;1.00
20650;DHT22;10484;48.736;9.332;2022-12-10T01:09:01;2.10;1.00
20650;DHT22;10484;48.736;9.332;2022-12-10T01:11:34;2.10;1.00
20650;DHT22;10484;48.736;9.332;2022-12-10T01:14:00;2.10;1.00
20650;DHT22;10484;48.736;9.332;2022-12-10T01:16:26;2.10;1.00
20650;DHT22;10484;48.736;9.332;2022-12-10T01:18:53;2.10;1.00
20650;DHT22;10484;48.736;9.332;2022-12-10T01:21:20;2.10;1.00
20650;DHT22;10484;48.736;9.332;2022-12-10T01:23:48;2.20;1.00
20650;DHT22;10484;48.736;9.332;2022-12-10T01:26:24;2.20;1.00
20650;DHT22;10484;48.736;9.332;2022-12-10T01:28:51;2.10;1.00
20650;DHT22;10484;48.736;9.332;2022-12-10T01:31:28;2.10;1.00
20650;DHT22;10484;48.736;9.332;2022-12-10T01:33:55;2.10;1.00
20650;DHT22;10484;48.736;9.332;2022-12-10T01:36:29;2.10;1.00
20650;DHT22;10484;48.736;9.332;2022-12-10T01:38:55;2.10;1.00
20650;DHT22;10484;48.736;9.332;2022-12-10T01:41:27;2.10;1.00
20650;DHT22;10484;48.736;9.332;2022-12-10T01:44:53;2.10;1.00
20650;DHT22;10484;48.736;9.332;2022-12-10T01:46:52;2.10;1.00
20650;DHT22;10484;48.736;9.332;2022-12-10T01:49:23;2.10;1.00
20650;DHT22;10484;48.736;9.332;2022-12-10T01:51:52;2.10;1.00
20650;DHT22;10484;48.736;9.332;2022-12-10T01:54:27;2.10;1.00
20650;DHT22;10484;48.736;9.332;2022-12-10T01:57:11;2.10;1.00
20650;DHT22;10484;48.736;9.332;2022-12-10T01:59:39;2.10;1.00
20650;DHT22;10484;48.736;9.332;2022-12-10T02:02:20;2.10;1.00
20650;DHT22;10484;48.736;9.332;2022-12-10T02:08:03;2.10;1.00
20650;DHT22;10484;48.736;9.332;2022-12-10T02:11:10;2.10;1.00
20650;DHT22;10484;48.736;9.332;2022-12-10T02:13:41;2.10;1.00
20650;DHT22;10484;48.736;9.332;2022-12-10T02:16:18;2.10;1.00
20650;DHT22;10484;48.736;9.332;2022-12-10T02:18:56;2.10;1.00
20650;DHT22;10484;48.736;9.332;2022-12-10T02:21:29;2.10;1.00
20650;DHT22;10484;48.736;9.332;2022-12-10T02:24:03;2.10;1.00
20650;DHT22;10484;48.736;9.332;2022-12-10T02:26:43;2.10;1.00
20650;DHT22;10484;48.736;9.332;2022-12-10T02:29:16;2.10;1.00
20650;DHT22;10484;48.736;9.332;2022-12-10T02:31:46;2.10;1.00
20650;DHT22;10484;48.736;9.332;2022-12-10T02:34:13;2.10;1.00
20650;DHT22;10484;48.736;9.332;2022-12-10T02:36:43;2.10;1.00
20650;DHT22;10484;48.736;9.332;2022-12-10T02:39:12;2.10;1.00
20650;DHT22;10484;48.736;9.332;2022-12-10T02:41:43;2.10;1.00
20650;DHT22;10484;48.736;9.332;2022-12-10T02:44:12;2.10;1.00
20650;DHT22;10484;48.736;9.332;2022-12-10T02:46:40;2.10;1.00
20650;DHT22;10484;48.736;9.332;2022-12-10T02:49:07;2.10;1.00
20650;DHT22;10484;48.736;9.332;2022-12-10T02:51:33;2.10;1.00
20650;DHT22;10484;48.736;9.332;2022-12-10T02:54:04;2.10;1.00
20650;DHT22;10484;48.736;9.332;2022-12-10T02:56:36;2.10;1.00
20650;DHT22;10484;48.736;9.332;2022-12-10T02:59:30;2.10;1.00
20650;DHT22;10484;48.736;9.332;2022-12-10T03:02:09;2.10;1.00
20650;DHT22;10484;48.736;9.332;2022-12-10T03:07:18;2.10;1.00
20650;DHT22;10484;48.736;9.332;2022-12-10T03:10:00;2.10;1.00
20650;DHT22;10484;48.736;9.332;2022-12-10T03:12:35;2.10;1.00
20650;DHT22;10484;48.736;9.332;2022-12-10T03:15:06;2.10;1.00
20650;DHT22;10484;48.736;9.332;2022-12-10T03:17:34;2.10;1.00
20650;DHT22;10484;48.736;9.332;2022-12-10T03:20:02;2.10;1.00
20650;DHT22;10484;48.736;9.332;2022-12-10T03:22:29;2.10;1.00
20650;DHT22;10484;48.736;9.332;2022-12-10T03:24:55;2.10;1.00
20650;DHT22;10484;48.736;9.332;2022-12-10T03:27:23;2.10;1.00
20650;DHT22;10484;48.736;9.332;2022-12-10T03:29:51;2.10;1.00
20650;DHT22;10484;48.736;9.332;2022-12-10T03:32:21;2.10;1.00
20650;DHT22;10484;48.736;9.332;2022-12-10T03:34:47;2.10;1.00
20650;DHT22;10484;48.736;9.332;2022-12-10T03:37:14;2.10;1.00
20650;DHT22;10484;48.736;9.332;2022-12-10T03:39:41;2.10;1.00
20650;DHT22;10484;48.736;9.332;2022-12-10T03:42:07;2.10;1.00
20650;DHT22;10484;48.736;9.332;2022-12-10T03:44:36;2.10;1.00
20650;DHT22;10484;48.736;9.332;2022-12-10T03:47:03;2.10;1.00
20650;DHT22;10484;48.736;9.332;2022-12-10T03:49:29;2.10;1.00
20650;DHT22;10484;48.736;9.332;2022-12-10T03:51:55;2.10;1.00
20650;DHT22;10484;48.736;9.332;2022-12-10T03:54:21;2.10;1.00
20650;DHT22;10484;48.736;9.332;2022-12-10T03:56:47;2.10;1.00
20650;DHT22;10484;48.736;9.332;2022-12-10T03:59:12;2.10;1.00
20650;DHT22;10484;48.736;9.332;2022-12-10T04:01:38;2.10;1.00
20650;DHT22;10484;48.736;9.332;2022-12-10T04:04:04;2.10;1.00
20650;DHT22;10484;48.736;9.332;2022-12-10T04:06:30;2.00;1.00
20650;DHT22;10484;48.736;9.332;2022-12-10T04:08:56;2.10;1.00
20650;DHT22;10484;48.736;9.332;2022-12-10T04:11:21;2.10;1.00
20650;DHT22;10484;48.736;9.332;2022-12-10T04:13:48;2.10;1.00
20650;DHT22;10484;48.736;9.332;2022-12-10T04:16:34;2.10;1.00
20650;DHT22;10484;48.736;9.332;2022-12-10T04:19:09;2.00;1.00
20650;DHT22;10484;48.736;9.332;2022-12-10T04:21:36;2.00;1.00
20650;DHT22;10484;48.736;9.332;2022-12-10T04:24:24;2.10;1.00
20650;DHT22;10484;48.736;9.332;2022-12-10T04:29:42;2.00;1.00
20650;DHT22;10484;48.736;9.332;2022-12-10T04:32:08;2.00;1.00
20650;DHT22;10484;48.736;9.332;2022-12-10T04:34:34;2.00;1.00
20650;DHT22;10484;48.736;9.332;2022-12-10T04:37:00;2.00;1.00
20650;DHT22;10484;48.736;9.332;2022-12-10T04:39:26;2.00;1.00
20650;DHT22;10484;48.736;9.332;2022-12-10T04:41:52;2.00;1.00
20650;DHT22;10484;48.736;9.332;2022-12-10T04:44:18;2.00;1.00
20650;DHT22;10484;48.736;9.332;2022-12-10T04:46:44;2.00;1.00
20650;DHT22;10484;48.736;9.332;2022-12-10T04:49:10;2.00;1.00
20650;DHT22;10484;48.736;9.332;2022-12-10T04:51:36;2.00;1.00
20650;DHT22;10484;48.736;9.332;2022-12-10T04:54:03;2.00;1.00
20650;DHT22;10484;48.736;9.332;2022-12-10T04:56:29;2.00;1.00
20650;DHT22;10484;48.736;9.332;2022-12-10T04:58:55;2.00;1.00
20650;DHT22;10484;48.736;9.332;2022-12-10T05:01:21;2.00;1.00
20650;DHT22;10484;48.736;9.332;2022-12-10T05:03:47;2.00;1.00
20650;DHT22;10484;48.736;9.332;2022-12-10T05:06:15;2.00;1.00
20650;DHT22;10484;48.736;9.332;2022-12-10T05:08:41;2.00;1.00
20650;DHT22;10484;48.736;9.332;2022-12-10T05:11:10;2.00;1.00
20650;DHT22;10484;48.736;9.332;2022-12-10T05:13:36;2.00;1.00
20650;DHT22;10484;48.736;9.332;2022-12-10T05:16:03;2.00;1.00
20650;DHT22;10484;48.736;9.332;2022-12-10T05:18:29;2.00;1.00
20650;DHT22;10484;48.736;9.332;2022-12-10T05:21:01;2.00;1.00
20650;DHT22;10484;48.736;9.332;2022-12-10T05:23:26;2.00;1.00
20650;DHT22;10484;48.736;9.332;2022-12-10T05:26:10;2.00;1.00
20650;DHT22;10484;48.736;9.332;2022-12-10T05:28:38;2.00;1.00
20650;DHT22;10484;48.736;9.332;2022-12-10T05:31:05;2.00;1.00
20650;DHT22;10484;48.736;9.332;2022-12-10T05:33:36;2.00;1.00
20650;DHT22;10484;48.736;9.332;2022-12-10T05:36:03;2.00;1.00
20650;DHT22;10484;48.736;9.332;2022-12-10T05:38:31;2.00;1.00
20650;DHT22;10484;48.736;9.332;2022-12-10T05:41:15;2.00;1.00
20650;DHT22;10484;48.736;9.332;2022-12-10T05:43:43;2.00;1.00
20650;DHT22;10484;48.736;9.332;2022-12-10T05:46:17;2.00;1.00
20650;DHT22;10484;48.736;9.332;2022-12-10T05:48:43;2.00;1.00
20650;DHT22;10484;48.736;9.332;2022-12-10T05:51:11;2.00;1.00
20650;DHT22;10484;48.736;9.332;2022-12-10T05:53:37;1.90;1.00
20650;DHT22;10484;48.736;9.332;2022-12-10T05:56:09;2.00;1.00
20650;DHT22;10484;48.736;9.332;2022-12-10T05:58:36;2.00;1.00
20650;DHT22;10484;48.736;9.332;2022-12-10T06:01:07;2.00;1.00
20650;DHT22;10484;48.736;9.332;2022-12-10T06:03:33;2.00;1.00
20650;DHT22;10484;48.736;9.332;2022-12-10T06:05:58;2.00;1.00
20650;DHT22;10484;48.736;9.332;2022-12-10T06:08:24;2.00;1.00
20650;DHT22;10484;48.736;9.332;2022-12-10T06:10:49;2.00;1.00
20650;DHT22;10484;48.736;9.332;2022-12-10T06:13:15;2.00;1.00
20650;DHT22;10484;48.736;9.332;2022-12-10T06:15:42;2.00;1.00
20650;DHT22;10484;48.736;9.332;2022-12-10T06:18:07;2.00;1.00
20650;DHT22;10484;48.736;9.332;2022-12-10T06:20:34;2.00;1.00
20650;DHT22;10484;48.736;9.332;2022-12-10T06:23:02;2.00;1.00
20650;DHT22;10484;48.736;9.332;2022-12-10T06:25:28;2.00;1.00
20650;DHT22;10484;48.736;9.332;2022-12-10T06:27:53;2.00;1.00
20650;DHT22;10484;48.736;9.332;2022-12-10T06:30:19;2.00;1.00
20650;DHT22;10484;48.736;9.332;2022-12-10T06:32:44;2.00;1.00
20650;DHT22;10484;48.736;9.332;2022-12-10T06:35:11;2.00;1.00
20650;DHT22;10484;48.736;9.332;2022-12-10T06:37:37;2.00;1.00
20650;DHT22;10484;48.736;9.332;2022-12-10T06:40:03;2.00;1.00
20650;DHT22;10484;48.736;9.332;2022-12-10T06:42:29;2.00;1.00
20650;DHT22;10484;48.736;9.332;2022-12-10T06:44:55;2.00;1.00
20650;DHT22;10484;48.736;9.332;2022-12-10T06:47:21;2.00;1.00
20650;DHT22;10484;48.736;9.332;2022-12-10T06:49:47;2.00;1.00
20650;DHT22;10484;48.736;9.332;2022-12-10T06:52:13;2.00;1.00
20650;DHT22;10484;48.736;9.332;2022-12-10T06:54:39;2.00;1.00
20650;DHT22;10484;48.736;9.332;2022-12-10T06:57:05;2.00;1.00
20650;DHT22;10484;48.736;9.332;2022-12-10T06:59:30;2.00;1.00
20650;DHT22;10484;48.736;9.332;2022-12-10T07:01:56;2.00;1.00
20650;DHT22;10484;48.736;9.332;2022-12-10T07:04:21;2.00;1.00
20650;DHT22;10484;48.736;9.332;2022-12-10T07:06:47;2.00;1.00
20650;DHT22;10484;48.736;9.332;2022-12-10T07:09:13;2.00;1.00
20650;DHT22;10484;48.736;9.332;2022-12-10T07:11:38;2.00;1.00
20650;DHT22;10484;48.736;9.332;2022-12-10T07:14:04;2.00;1.00
20650;DHT22;10484;48.736;9.332;2022-12-10T07:16:32;2.00;1.00
20650;DHT22;10484;48.736;9.332;2022-12-10T07:19:00;2.00;1.00
20650;DHT22;10484;48.736;9.332;2022-12-10T07:21:32;2.00;1.00
20650;DHT22;10484;48.736;9.332;2022-12-10T07:24:03;2.00;1.00
20650;DHT22;10484;48.736;9.332;2022-12-10T07:26:32;2.00;1.00
20650;DHT22;10484;48.736;9.332;2022-12-10T07:28:59;2.00;1.00
20650;DHT22;10484;48.736;9.332;2022-12-10T07:31:25;1.90;1.00
20650;DHT22;10484;48.736;9.332;2022-12-10T07:33:52;1.90;1.00
20650;DHT22;10484;48.736;9.332;2022-12-10T07:36:18;1.90;1.00
20650;DHT22;10484;48.736;9.332;2022-12-10T07:38:44;1.90;1.00
20650;DHT22;10484;48.736;9.332;2022-12-10T07:41:11;1.90;1.00
20650;DHT22;10484;48.736;9.332;2022-12-10T07:43:38;1.90;1.00
20650;DHT22;10484;48.736;9.332;2022-12-10T07:46:17;2.00;1.00
20650;DHT22;10484;48.736;9.332;2022-12-10T07:48:43;2.00;1.00
20650;DHT22;10484;48.736;9.332;2022-12-10T07:51:10;2.00;1.00
20650;DHT22;10484;48.736;9.332;2022-12-10T07:53:36;2.00;1.00
20650;DHT22;10484;48.736;9.332;2022-12-10T07:56:03;2.00;1.00
20650;DHT22;10484;48.736;9.332;2022-12-10T07:58:29;1.90;1.00
20650;DHT22;10484;48.736;9.332;2022-12-10T08:00:55;1.90;1.00
20650;DHT22;10484;48.736;9.332;2022-12-10T08:03:20;1.90;1.00
20650;DHT22;10484;48.736;9.332;2022-12-10T08:05:46;2.00;1.00
20650;DHT22;10484;48.736;9.332;2022-12-10T08:08:12;2.00;1.00
20650;DHT22;10484;48.736;9.332;2022-12-10T08:10:39;2.00;1.00
20650;DHT22;10484;48.736;9.332;2022-12-10T08:13:05;2.00;1.00
20650;DHT22;10484;48.736;9.332;2022-12-10T08:15:31;2.00;1.00
20650;DHT22;10484;48.736;9.332;2022-12-10T08:17:57;2.00;1.00
20650;DHT22;10484;48.736;9.332;2022-12-10T08:20:23;2.00;1.00
20650;DHT22;10484;48.736;9.332;2022-12-10T08:22:49;2.00;1.00
20650;DHT22;10484;48.736;9.332;2022-12-10T08:25:15;2.00;1.00
20650;DHT22;10484;48.736;9.332;2022-12-10T08:27:41;2.00;1.00
20650;DHT22;10484;48.736;9.332;2022-12-10T08:30:07;2.00;1.00
20650;DHT22;10484;48.736;9.332;2022-12-10T08:32:33;2.00;1.00
20650;DHT22;10484;48.736;9.332;2022-12-10T08:34:59;2.00;1.00
20650;DHT22;10484;48.736;9.332;2022-12-10T08:37:24;2.00;1.00
20650;DHT22;10484;48.736;9.332;2022-12-10T08:39:50;2.00;1.00
20650;DHT22;10484;48.736;9.332;2022-12-10T08:42:15;2.00;1.00
20650;DHT22;10484;48.736;9.332;2022-12-10T08:44:41;2.00;1.00
20650;DHT22;10484;48.736;9.332;2022-12-10T08:47:07;2.00;1.00
20650;DHT22;10484;48.736;9.332;2022-12-10T08:49:33;2.00;1.00
20650;DHT22;10484;48.736;9.332;2022-12-10T08:51:58;2.00;1.00
20650;DHT22;10484;48.736;9.332;2022-12-10T08:54:24;2.00;1.00
20650;DHT22;10484;48.736;9.332;2022-12-10T08:56:50;2.00;1.00
20650;DHT22;10484;48.736;9.332;2022-12-10T08:59:16;2.00;1.00
20650;DHT22;10484;48.736;9.332;2022-12-10T09:01:42;2.00;1.00
20650;DHT22;10484;48.736;9.332;2022-12-10T09:04:08;2.00;1.00
20650;DHT22;10484;48.736;9.332;2022-12-10T09:06:34;2.00;1.00
20650;DHT22;10484;48.736;9.332;2022-12-10T09:09:00;2.10;1.00
20650;DHT22;10484;48.736;9.332;2022-12-10T09:11:31;2.00;1.00
20650;DHT22;10484;48.736;9.332;2022-12-10T09:13:57;2.00;1.00
20650;DHT22;10484;48.736;9.332;2022-12-10T09:16:34;2.00;1.00
20650;DHT22;10484;48.736;9.332;2022-12-10T09:19:01;2.00;1.00
20650;DHT22;10484;48.736;9.332;2022-12-10T09:21:27;2.00;1.00
20650;DHT22;10484;48.736;9.332;2022-12-10T09:23:52;2.00;1.00
20650;DHT22;10484;48.736;9.332;2022-12-10T09:26:19;2.00;1.00
20650;DHT22;10484;48.736;9.332;2022-12-10T09:28:45;2.00;1.00
20650;DHT22;10484;48.736;9.332;2022-12-10T09:31:12;2.00;1.00
20650;DHT22;10484;48.736;9.332;2022-12-10T09:33:38;2.00;1.00
20650;DHT22;10484;48.736;9.332;2022-12-10T09:36:05;2.00;1.00
20650;DHT22;10484;48.736;9.332;2022-12-10T09:38:34;2.00;1.00
20650;DHT22;10484;48.736;9.332;2022-12-10T09:43:46;2.10;1.00
20650;DHT22;10484;48.736;9.332;2022-12-10T09:46:26;2.10;1.00
20650;DHT22;10484;48.736;9.332;2022-12-10T09:51:55;2.10;1.00
20650;DHT22;10484;48.736;9.332;2022-12-10T09:54:33;2.00;1.00
20650;DHT22;10484;48.736;9.332;2022-12-10T09:57:00;2.00;1.00
20650;DHT22;10484;48.736;9.332;2022-12-10T09:59:39;2.10;1.00
20650;DHT22;10484;48.736;9.332;2022-12-10T10:02:27;2.10;1.00
20650;DHT22;10484;48.736;9.332;2022-12-10T10:05:11;2.10;1.00
20650;DHT22;10484;48.736;9.332;2022-12-10T10:07:47;2.00;1.00
20650;DHT22;10484;48.736;9.332;2022-12-10T10:10:40;2.00;1.00
20650;DHT22;10484;48.736;9.332;2022-12-10T10:13:25;2.10;1.00
20650;DHT22;10484;48.736;9.332;2022-12-10T10:15:52;2.10;1.00
20650;DHT22;10484;48.736;9.332;2022-12-10T10:20:47;2.10;1.00
20650;DHT22;10484;48.736;9.332;2022-12-10T10:23:14;2.10;1.00
20650;DHT22;10484;48.736;9.332;2022-12-10T10:25:41;2.10;1.00
20650;DHT22;10484;48.736;9.332;2022-12-10T10:28:11;2.10;1.00
20650;DHT22;10484;48.736;9.332;2022-12-10T10:30:40;2.10;1.00
20650;DHT22;10484;48.736;9.332;2022-12-10T10:33:09;2.10;1.00
20650;DHT22;10484;48.736;9.332;2022-12-10T10:36:03;2.10;1.00
20650;DHT22;10484;48.736;9.332;2022-12-10T10:38:29;2.10;1.00
20650;DHT22;10484;48.736;9.332;2022-12-10T10:40:59;2.10;1.00
20650;DHT22;10484;48.736;9.332;2022-12-10T10:43:32;2.10;1.00
20650;DHT22;10484;48.736;9.332;2022-12-10T10:46:04;2.20;1.00
20650;DHT22;10484;48.736;9.332;2022-12-10T10:48:31;2.20;1.00
20650;DHT22;10484;48.736;9.332;2022-12-10T10:51:15;2.20;1.00
20650;DHT22;10484;48.736;9.332;2022-12-10T10:53:53;2.20;1.00
20650;DHT22;10484;48.736;9.332;2022-12-10T10:56:25;2.30;1.00
20650;DHT22;10484;48.736;9.332;2022-12-10T11:01:19;2.30;1.00
20650;DHT22;10484;48.736;9.332;2022-12-10T11:03:51;2.40;1.00
20650;DHT22;10484;48.736;9.332;2022-12-10T11:06:19;2.40;1.00
20650;DHT22;10484;48.736;9.332;2022-12-10T11:08:46;2.40;1.00
20650;DHT22;10484;48.736;9.332;2022-12-10T11:11:22;2.40;1.00
20650;DHT22;10484;48.736;9.332;2022-12-10T11:13:48;2.40;1.00
20650;DHT22;10484;48.736;9.332;2022-12-10T11:16:23;2.50;1.00
20650;DHT22;10484;48.736;9.332;2022-12-10T11:21:23;2.50;1.00
20650;DHT22;10484;48.736;9.332;2022-12-10T11:23:52;2.50;1.00
20650;DHT22;10484;48.736;9.332;2022-12-10T11:29:11;2.60;1.00
20650;DHT22;10484;48.736;9.332;2022-12-10T11:35:06;2.60;1.00
20650;DHT22;10484;48.736;9.332;2022-12-10T11:38:03;2.60;1.00
20650;DHT22;10484;48.736;9.332;2022-12-10T11:40:49;2.60;1.00
20650;DHT22;10484;48.736;9.332;2022-12-10T11:49:23;2.60;1.00
20650;DHT22;10484;48.736;9.332;2022-12-10T11:54:56;2.60;1.00
20650;DHT22;10484;48.736;9.332;2022-12-10T12:00:15;2.70;1.00
20650;DHT22;10484;48.736;9.332;2022-12-10T12:05:19;2.70;1.00
20650;DHT22;10484;48.736;9.332;2022-12-10T12:07:53;2.60;1.00
20650;DHT22;10484;48.736;9.332;2022-12-10T12:13:02;2.60;1.00
20650;DHT22;10484;48.736;9.332;2022-12-10T12:21:03;2.70;1.00
20650;DHT22;10484;48.736;9.332;2022-12-10T12:26:15;2.70;1.00
20650;DHT22;10484;48.736;9.332;2022-12-10T12:28:51;2.60;1.00
20650;DHT22;10484;48.736;9.332;2022-12-10T12:31:22;2.60;1.00
20650;DHT22;10484;48.736;9.332;2022-12-10T12:34:00;2.60;1.00
20650;DHT22;10484;48.736;9.332;2022-12-10T12:36:33;2.60;1.00
20650;DHT22;10484;48.736;9.332;2022-12-10T12:46:43;2.60;1.00
20650;DHT22;10484;48.736;9.332;2022-12-10T12:49:21;2.60;1.00
20650;DHT22;10484;48.736;9.332;2022-12-10T12:51:58;2.60;1.00
20650;DHT22;10484;48.736;9.332;2022-12-10T12:54:25;2.60;1.00
20650;DHT22;10484;48.736;9.332;2022-12-10T13:02:08;2.60;1.00
20650;DHT22;10484;48.736;9.332;2022-12-10T13:04:39;2.60;1.00
20650;DHT22;10484;48.736;9.332;2022-12-10T13:09:51;2.70;1.00
20650;DHT22;10484;48.736;9.332;2022-12-10T13:12:27;2.70;1.00
20650;DHT22;10484;48.736;9.332;2022-12-10T13:20:45;2.70;1.00
20650;DHT22;10484;48.736;9.332;2022-12-10T13:33:50;2.80;1.00
20650;DHT22;10484;48.736;9.332;2022-12-10T13:41:33;2.80;1.00
20650;DHT22;10484;48.736;9.332;2022-12-10T13:44:38;2.80;1.00
20650;DHT22;10484;48.736;9.332;2022-12-10T13:50:33;2.90;1.00
20650;DHT22;10484;48.736;9.332;2022-12-10T13:55:46;2.90;1.00
20650;DHT22;10484;48.736;9.332;2022-12-10T14:01:02;2.90;1.00
20650;DHT22;10484;48.736;9.332;2022-12-10T14:06:20;2.80;1.00
20650;DHT22;10484;48.736;9.332;2022-12-10T14:08:54;2.80;1.00
20650;DHT22;10484;48.736;9.332;2022-12-10T14:11:25;2.80;1.00
20650;DHT22;10484;48.736;9.332;2022-12-10T14:13:54;2.80;1.00
20650;DHT22;10484;48.736;9.332;2022-12-10T14:16:23;2.90;1.00
20650;DHT22;10484;48.736;9.332;2022-12-10T14:18:56;2.90;1.00
20650;DHT22;10484;48.736;9.332;2022-12-10T14:21:23;2.90;1.00
20650;DHT22;10484;48.736;9.332;2022-12-10T14:23:50;2.90;1.00
20650;DHT22;10484;48.736;9.332;2022-12-10T14:26:27;2.80;1.00
20650;DHT22;10484;48.736;9.332;2022-12-10T14:28:59;2.80;1.00
20650;DHT22;10484;48.736;9.332;2022-12-10T14:31:28;2.90;1.00
20650;DHT22;10484;48.736;9.332;2022-12-10T14:34:00;2.80;1.00
20650;DHT22;10484;48.736;9.332;2022-12-10T14:36:56;2.90;1.00
20650;DHT22;10484;48.736;9.332;2022-12-10T14:39:31;2.90;1.00
20650;DHT22;10484;48.736;9.332;2022-12-10T14:42:03;2.90;1.00
20650;DHT22;10484;48.736;9.332;2022-12-10T14:44:30;2.90;1.00
20650;DHT22;10484;48.736;9.332;2022-12-10T14:47:05;2.90;1.00
20650;DHT22;10484;48.736;9.332;2022-12-10T14:49:31;2.90;1.00
20650;DHT22;10484;48.736;9.332;2022-12-10T14:51:56;2.90;1.00
20650;DHT22;10484;48.736;9.332;2022-12-10T14:54:28;2.90;1.00
20650;DHT22;10484;48.736;9.332;2022-12-10T14:56:55;2.90;1.00
20650;DHT22;10484;48.736;9.332;2022-12-10T14:59:26;2.90;1.00
20650;DHT22;10484;48.736;9.332;2022-12-10T15:01:57;2.90;1.00
20650;DHT22;10484;48.736;9.332;2022-12-10T15:04:30;2.90;1.00
20650;DHT22;10484;48.736;9.332;2022-12-10T15:07:03;2.80;1.00
20650;DHT22;10484;48.736;9.332;2022-12-10T15:09:30;2.80;1.00
20650;DHT22;10484;48.736;9.332;2022-12-10T15:11:58;2.80;1.00
20650;DHT22;10484;48.736;9.332;2022-12-10T15:14:26;2.80;1.00
20650;DHT22;10484;48.736;9.332;2022-12-10T15:16:53;2.80;1.00
20650;DHT22;10484;48.736;9.332;2022-12-10T15:19:30;2.80;1.00
20650;DHT22;10484;48.736;9.332;2022-12-10T15:22:19;2.70;1.00
20650;DHT22;10484;48.736;9.332;2022-12-10T15:24:45;2.70;1.00
20650;DHT22;10484;48.736;9.332;2022-12-10T15:27:30;2.70;1.00
20650;DHT22;10484;48.736;9.332;2022-12-10T15:29:55;2.60;1.00
20650;DHT22;10484;48.736;9.332;2022-12-10T15:32:24;2.60;1.00
20650;DHT22;10484;48.736;9.332;2022-12-10T15:34:58;2.70;1.00
20650;DHT22;10484;48.736;9.332;2022-12-10T15:37:38;2.70;1.00
20650;DHT22;10484;48.736;9.332;2022-12-10T15:40:28;2.70;1.00
20650;DHT22;10484;48.736;9.332;2022-12-10T15:42:51;2.70;1.00
20650;DHT22;10484;48.736;9.332;2022-12-10T15:45:38;2.70;1.00
20650;DHT22;10484;48.736;9.332;2022-12-10T15:48:07;2.70;1.00
20650;DHT22;10484;48.736;9.332;2022-12-10T15:50:33;2.70;1.00
20650;DHT22;10484;48.736;9.332;2022-12-10T15:52:59;2.70;1.00
20650;DHT22;10484;48.736;9.332;2022-12-10T15:55:24;2.70;1.00
20650;DHT22;10484;48.736;9.332;2022-12-10T15:57:50;2.70;1.00
20650;DHT22;10484;48.736;9.332;2022-12-10T16:00:19;2.70;1.00
20650;DHT22;10484;48.736;9.332;2022-12-10T16:02:53;2.60;1.00
20650;DHT22;10484;48.736;9.332;2022-12-10T16:05:25;2.60;1.00
20650;DHT22;10484;48.736;9.332;2022-12-10T16:07:56;2.60;1.00
20650;DHT22;10484;48.736;9.332;2022-12-10T16:10:24;2.50;1.00
20650;DHT22;10484;48.736;9.332;2022-12-10T16:13:03;2.50;1.00
20650;DHT22;10484;48.736;9.332;2022-12-10T16:15:37;2.50;1.00
20650;DHT22;10484;48.736;9.332;2022-12-10T16:18:09;2.50;1.00
20650;DHT22;10484;48.736;9.332;2022-12-10T16:20:35;2.40;1.00
20650;DHT22;10484;48.736;9.332;2022-12-10T16:23:00;2.40;1.00
20650;DHT22;10484;48.736;9.332;2022-12-10T16:25:28;2.40;1.00
20650;DHT22;10484;48.736;9.332;2022-12-10T16:27:55;2.40;1.00
20650;DHT22;10484;48.736;9.332;2022-12-10T16:30:23;2.40;1.00
20650;DHT22;10484;48.736;9.332;2022-12-10T16:32:50;2.40;1.00
20650;DHT22;10484;48.736;9.332;2022-12-10T16:35:16;2.40;1.00
20650;DHT22;10484;48.736;9.332;2022-12-10T16:37:44;2.40;1.00
20650;DHT22;10484;48.736;9.332;2022-12-10T16:40:12;2.40;1.00
20650;DHT22;10484;48.736;9.332;2022-12-10T16:42:39;2.30;1.00
20650;DHT22;10484;48.736;9.332;2022-12-10T16:45:14;2.30;1.00
20650;DHT22;10484;48.736;9.332;2022-12-10T16:47:40;2.30;1.00
20650;DHT22;10484;48.736;9.332;2022-12-10T16:50:06;2.30;1.00
20650;DHT22;10484;48.736;9.332;2022-12-10T16:52:32;2.40;1.00
20650;DHT22;10484;48.736;9.332;2022-12-10T16:54:58;2.30;1.00
20650;DHT22;10484;48.736;9.332;2022-12-10T16:57:23;2.30;1.00
20650;DHT22;10484;48.736;9.332;2022-12-10T16:59:50;2.30;1.00
20650;DHT22;10484;48.736;9.332;2022-12-10T17:02:17;2.30;1.00
20650;DHT22;10484;48.736;9.332;2022-12-10T17:04:43;2.20;1.00
20650;DHT22;10484;48.736;9.332;2022-12-10T17:07:13;2.20;1.00
20650;DHT22;10484;48.736;9.332;2022-12-10T17:09:39;2.20;1.00
20650;DHT22;10484;48.736;9.332;2022-12-10T17:12:07;2.20;1.00
20650;DHT22;10484;48.736;9.332;2022-12-10T17:14:36;2.20;1.00
20650;DHT22;10484;48.736;9.332;2022-12-10T17:17:03;2.20;1.00
20650;DHT22;10484;48.736;9.332;2022-12-10T17:19:32;2.20;1.00
20650;DHT22;10484;48.736;9.332;2022-12-10T17:21:58;2.20;1.00
20650;DHT22;10484;48.736;9.332;2022-12-10T17:24:24;2.20;1.00
20650;DHT22;10484;48.736;9.332;2022-12-10T17:26:50;2.20;1.00
20650;DHT22;10484;48.736;9.332;2022-12-10T17:29:19;2.20;1.00
20650;DHT22;10484;48.736;9.332;2022-12-10T17:31:47;2.20;1.00
20650;DHT22;10484;48.736;9.332;2022-12-10T17:34:12;2.20;1.00
20650;DHT22;10484;48.736;9.332;2022-12-10T17:36:39;2.20;1.00
20650;DHT22;10484;48.736;9.332;2022-12-10T17:39:06;2.20;1.00
20650;DHT22;10484;48.736;9.332;2022-12-10T17:41:32;2.20;1.00
20650;DHT22;10484;48.736;9.332;2022-12-10T17:43:57;2.30;1.00
20650;DHT22;10484;48.736;9.332;2022-12-10T17:46:24;2.20;1.00
20650;DHT22;10484;48.736;9.332;2022-12-10T17:48:51;2.20;1.00
20650;DHT22;10484;48.736;9.332;2022-12-10T17:51:17;2.20;1.00
20650;DHT22;10484;48.736;9.332;2022-12-10T17:53:43;2.10;1.00
20650;DHT22;10484;48.736;9.332;2022-12-10T17:56:17;2.10;1.00
20650;DHT22;10484;48.736;9.332;2022-12-10T17:58:43;2.10;1.00
20650;DHT22;10484;48.736;9.332;2022-12-10T18:01:09;2.00;1.00
20650;DHT22;10484;48.736;9.332;2022-12-10T18:03:36;2.00;1.00